Estación Meteorológica Peña el Pijo (Robertgarden) [ 06/25/17 17:33:37 CEST ]

Fecha Hora Presion(HPa) Temp (°C) Humedad % Rocio (°C) Viento ( m/s) Direccion Lluvia 1Hora(mm) Lluvia 24H(mm) LLuvia Total(mm)
2017-May-05 01:01:41 1004.500 11.9 75 7.6         1390.83
2017-May-05 02:01:57 1004.200 10.8 78 7.1         1390.83
2017-May-05 03:01:34 1003.300 10.1 80 6.8         1390.83
2017-May-05 04:01:36 1002.700 10.1 82 7.1         1390.83
2017-May-05 05:09:03 1002.300 9.9 83 7.1         1390.83
2017-May-05 06:01:37 1003.500 11.3 82 8.3         1390.83
2017-May-05 07:01:54 1002.300 11.6 79 8.1         1390.83
2017-May-05 08:01:48 1002.200 11.4 79 7.9         1390.83
2017-May-05 09:01:44 1002.600 14.9 67 8.8         1390.83
2017-May-05 10:01:44 1002.600 17.6 63 10.4         1390.83
2017-May-05 11:01:46 1002.700 21.9 48 10.3 2.0 SSE     1390.83
2017-May-05 12:01:53 1002.600 24.3 42 10.5         1390.83
2017-May-05 13:01:52 1002.700 26.4 40 11.8         1390.83
2017-May-05 14:01:48 1002.400 25.6 40 11.0         1390.83
2017-May-05 15:01:36 1002.400 25.5 42 11.6         1390.83
2017-May-05 16:01:55 1002.200 26.8 39 11.7         1390.83
2017-May-05 17:01:47 1002.200 27.1 39 11.9         1390.83
2017-May-05 18:01:42 1002.600 22.9 48 11.2         1390.83
2017-May-05 19:01:49 1002.900 21.2 50 10.4         1390.83
2017-May-05 20:01:39 1003.200 20.3 48 8.9         1390.83
2017-May-05 21:01:51 1003.900 16.9 59 8.8         1390.83
2017-May-05 22:01:46 1004.900 14.9 63 7.9         1390.83
2017-May-05 23:01:42 1005.200 13.9 65 7.4         1390.83

Temperatura Máxima:27°    Temperatura Mínima:
Presión Máxima:1005.200 Hpa    Presión Mínima:1002.200 Hpa


Volver